createdAt,value
2022-09-20T00:01:35.550Z,101131.81
2022-09-20T00:04:05.229Z,101140.97
2022-09-20T00:06:57.088Z,101141.31
2022-09-20T00:09:23.356Z,101141.00
2022-09-20T00:11:49.667Z,101143.53
2022-09-20T00:14:16.002Z,101147.44
2022-09-20T00:16:42.452Z,101141.47
2022-09-20T00:19:15.543Z,101149.53
2022-09-20T00:21:41.842Z,101141.00
2022-09-20T00:24:10.328Z,101146.47
2022-09-20T00:26:36.634Z,101140.84
2022-09-20T00:29:03.056Z,101150.53
2022-09-20T00:31:29.467Z,101149.78
2022-09-20T00:34:16.504Z,101144.91
2022-09-20T00:36:44.059Z,101144.03
2022-09-20T00:39:14.688Z,101140.47
2022-09-20T00:41:41.104Z,101140.63
2022-09-20T00:44:42.467Z,101145.84
2022-09-20T00:47:19.495Z,101141.00
2022-09-20T00:49:46.427Z,101146.34
2022-09-20T00:52:13.062Z,101141.13
2022-09-20T00:54:39.471Z,101146.06
2022-09-20T00:57:06.032Z,101145.22
2022-09-20T00:59:32.307Z,101143.53
2022-09-20T01:02:20.239Z,101143.63
2022-09-20T01:04:48.438Z,101148.63
2022-09-20T01:07:18.359Z,101156.19
2022-09-20T01:09:45.037Z,101146.03
2022-09-20T01:12:16.015Z,101155.81
2022-09-20T01:14:45.130Z,101154.59
2022-09-20T01:17:12.843Z,101151.16
2022-09-20T01:20:12.025Z,101152.03
2022-09-20T01:22:48.591Z,101144.06
2022-09-20T01:25:43.105Z,101156.50
2022-09-20T01:28:09.598Z,101158.00
2022-09-20T01:30:43.714Z,101155.53
2022-09-20T01:33:32.695Z,101163.78
2022-09-20T01:36:03.270Z,101164.28
2022-09-20T01:38:48.295Z,101167.69
2022-09-20T01:41:24.465Z,101165.50
2022-09-20T01:43:55.728Z,101155.84
2022-09-20T01:46:33.491Z,101155.75
2022-09-20T01:49:27.711Z,101155.22
2022-09-20T01:52:16.065Z,101161.91
2022-09-20T01:55:04.444Z,101131.41
2022-09-20T01:57:49.224Z,101156.91
2022-09-20T02:00:21.605Z,101159.34
2022-09-20T02:03:12.319Z,101157.03
2022-09-20T02:05:50.895Z,101162.03
2022-09-20T02:08:36.900Z,101155.09
2022-09-20T02:11:05.830Z,101155.22
2022-09-20T02:14:12.693Z,101159.47
2022-09-20T02:16:44.635Z,101155.94
2022-09-20T02:19:38.732Z,101162.03
2022-09-20T02:22:17.096Z,101152.69
2022-09-20T02:24:46.469Z,101155.47
2022-09-20T02:27:25.409Z,101151.81
2022-09-20T02:30:12.747Z,101150.56
2022-09-20T02:32:51.120Z,101144.13
2022-09-20T02:35:33.109Z,101149.31
2022-09-20T02:38:05.479Z,101140.69
2022-09-20T02:40:41.015Z,101143.00
2022-09-20T02:43:22.572Z,101149.09
2022-09-20T02:46:12.460Z,101145.78
2022-09-20T02:48:56.000Z,101152.13
2022-09-20T02:51:36.610Z,101149.69
2022-09-20T02:54:17.745Z,101153.09
2022-09-20T02:56:51.744Z,101142.84
2022-09-20T02:59:28.159Z,101151.97
2022-09-20T03:02:06.416Z,101157.34
2022-09-20T03:05:10.047Z,101152.94
2022-09-20T03:08:04.302Z,101157.78
2022-09-20T03:10:36.807Z,101161.44
2022-09-20T03:13:33.984Z,101159.00
2022-09-20T03:16:18.593Z,101167.50
2022-09-20T03:19:00.919Z,101157.00
2022-09-20T03:21:36.308Z,101160.63
2022-09-20T03:24:08.846Z,101161.09
2022-09-20T03:26:53.719Z,101162.81
2022-09-20T03:29:33.719Z,101168.16
2022-09-20T03:32:28.729Z,101165.44
2022-09-20T03:35:16.835Z,101169.28
2022-09-20T03:38:14.825Z,101177.78
2022-09-20T03:41:07.472Z,101175.31
2022-09-20T03:43:41.435Z,101182.38
2022-09-20T03:46:17.692Z,101173.09
2022-09-20T03:48:56.356Z,101178.22
2022-09-20T03:51:38.121Z,101170.41
2022-09-20T03:54:42.383Z,101178.44
2022-09-20T03:57:15.866Z,101185.00
2022-09-20T04:00:04.983Z,101182.53
2022-09-20T04:02:45.453Z,101185.00
2022-09-20T04:05:40.219Z,101183.50
2022-09-20T04:08:25.589Z,101182.00
2022-09-20T04:11:03.575Z,101189.50
2022-09-20T04:13:36.039Z,101189.97
2022-09-20T04:16:31.206Z,101195.41
2022-09-20T04:19:04.327Z,101192.09
2022-09-20T04:21:49.504Z,101197.47
2022-09-20T04:24:45.256Z,101196.53
2022-09-20T04:27:20.426Z,101193.84
2022-09-20T04:29:53.003Z,101190.75
2022-09-20T04:32:28.655Z,101185.50
2022-09-20T04:35:20.599Z,101193.16
2022-09-20T04:37:47.593Z,101192.75
2022-09-20T04:40:34.085Z,101195.19
2022-09-20T04:43:11.797Z,101192.97
2022-09-20T04:46:06.678Z,101194.88
2022-09-20T04:48:51.584Z,101189.31
2022-09-20T04:51:58.915Z,101190.19
2022-09-20T04:54:41.323Z,101196.50
2022-09-20T04:57:22.576Z,101206.84
2022-09-20T05:00:12.726Z,101203.09
2022-09-20T05:03:16.306Z,101208.56
2022-09-20T05:05:57.183Z,101211.91
2022-09-20T05:08:46.491Z,101207.28
2022-09-20T05:11:18.506Z,101205.69
2022-09-20T05:14:02.528Z,101208.13
2022-09-20T05:16:53.549Z,101213.91
2022-09-20T05:19:35.579Z,101209.31
2022-09-20T05:22:24.016Z,101215.41
2022-09-20T05:25:21.307Z,101218.19
2022-09-20T05:28:08.732Z,101217.13
2022-09-20T05:30:44.626Z,101227.63
2022-09-20T05:33:37.418Z,101221.31
2022-09-20T05:36:22.226Z,101226.13
2022-09-20T05:39:03.647Z,101226.69
2022-09-20T05:41:42.071Z,101232.13
2022-09-20T05:44:17.177Z,101234.28
2022-09-20T05:47:03.508Z,101238.66
2022-09-20T05:49:50.324Z,101244.31
2022-09-20T05:52:28.815Z,101241.22
2022-09-20T05:55:34.230Z,101237.44
2022-09-20T05:58:33.180Z,101235.91
2022-09-20T06:01:15.504Z,101243.38
2022-09-20T06:04:20.174Z,101242.44
2022-09-20T06:07:21.343Z,101248.47
2022-09-20T06:10:08.765Z,101252.00
2022-09-20T06:12:35.664Z,101257.34
2022-09-20T06:15:32.703Z,101245.53
2022-09-20T06:18:36.696Z,101246.94
2022-09-20T06:21:29.188Z,101247.69
2022-09-20T06:24:00.969Z,101254.00
2022-09-20T06:26:33.638Z,101245.53
2022-09-20T06:29:05.453Z,101248.28
2022-09-20T06:31:32.031Z,101241.81
2022-09-20T06:34:08.500Z,101251.84
2022-09-20T06:36:56.236Z,101249.34
2022-09-20T06:39:57.912Z,101243.09
2022-09-20T06:42:27.289Z,101241.81
2022-09-20T06:44:54.219Z,101242.81
2022-09-20T06:47:21.690Z,101243.81
2022-09-20T06:49:50.072Z,101243.38
2022-09-20T06:52:18.884Z,101240.88
2022-09-20T06:54:46.879Z,101255.66
2022-09-20T06:57:18.085Z,101247.28
2022-09-20T06:59:45.515Z,101250.22
2022-09-20T07:02:11.842Z,101257.78
2022-09-20T07:07:30.143Z,101258.97
2022-09-20T07:09:56.675Z,101260.69
2022-09-20T07:12:22.958Z,101258.09
2022-09-20T07:14:50.517Z,101267.50
2022-09-20T07:17:16.787Z,101267.63
2022-09-20T07:19:43.145Z,101269.19
2022-09-20T07:22:09.530Z,101269.78
2022-09-20T07:24:36.332Z,101262.66
2022-09-20T07:27:05.391Z,101272.88
2022-09-20T07:29:32.175Z,101274.09
2022-09-20T07:31:58.546Z,101274.78
2022-09-20T07:34:25.628Z,101278.13
2022-09-20T07:36:52.216Z,101276.38
2022-09-20T07:39:18.570Z,101277.56
2022-09-20T07:41:48.256Z,101273.63
2022-09-20T07:44:21.365Z,101274.41
2022-09-20T07:46:49.176Z,101281.56
2022-09-20T07:49:15.567Z,101285.25
2022-09-20T07:51:41.958Z,101290.47
2022-09-20T07:54:08.692Z,101285.28
2022-09-20T07:56:35.198Z,101295.25
2022-09-20T07:59:01.821Z,101296.41
2022-09-20T08:01:28.253Z,101288.75
2022-09-20T08:03:54.904Z,101297.00
2022-09-20T08:06:21.743Z,101298.84
2022-09-20T08:08:48.261Z,101291.03
2022-09-20T08:11:18.015Z,101293.06
2022-09-20T08:16:38.466Z,101294.56
2022-09-20T08:19:04.867Z,101289.50
2022-09-20T08:21:32.916Z,101302.59
2022-09-20T08:23:59.967Z,101301.22
2022-09-20T08:26:29.073Z,101290.97
2022-09-20T08:28:57.663Z,101297.50
2022-09-20T08:31:27.329Z,101304.75
2022-09-20T08:33:54.491Z,101299.75
2022-09-20T08:36:24.467Z,101303.22
2022-09-20T08:41:51.287Z,101306.06
2022-09-20T08:44:27.755Z,101304.22
2022-09-20T08:47:09.709Z,101299.66
2022-09-20T08:49:37.252Z,101301.22
2022-09-20T08:52:10.279Z,101308.75
2022-09-20T08:54:36.995Z,101296.66
2022-09-20T08:57:10.691Z,101301.34
2022-09-20T08:59:37.020Z,101304.53
2022-09-20T09:02:03.612Z,101308.66
2022-09-20T09:04:35.654Z,101306.66
2022-09-20T09:07:03.030Z,101300.75
2022-09-20T09:09:30.442Z,101300.09
2022-09-20T09:11:58.688Z,101300.09
2022-09-20T09:14:49.526Z,101306.91
2022-09-20T09:17:18.424Z,101294.00
2022-09-20T09:19:49.609Z,101302.44
2022-09-20T09:22:35.166Z,101293.72
2022-09-20T09:25:17.114Z,101291.84
2022-09-20T09:28:02.045Z,101290.84
2022-09-20T09:30:30.169Z,101298.59
2022-09-20T09:33:14.916Z,101290.75
2022-09-20T09:35:41.579Z,101291.66
2022-09-20T09:38:17.845Z,101289.16
2022-09-20T09:41:01.942Z,101282.00
2022-09-20T09:43:33.330Z,101280.66
2022-09-20T09:46:23.479Z,101275.53
2022-09-20T09:49:15.406Z,101275.91
2022-09-20T09:52:01.533Z,101275.69
2022-09-20T09:55:05.291Z,101280.66
2022-09-20T09:57:32.939Z,101285.66
2022-09-20T10:00:31.439Z,101287.59
2022-09-20T10:03:12.292Z,101282.81
2022-09-20T10:06:10.885Z,101283.13
2022-09-20T10:08:54.971Z,101281.97
2022-09-20T10:11:37.923Z,101278.19
2022-09-20T10:14:19.364Z,101286.13
2022-09-20T10:17:04.475Z,101275.34
2022-09-20T10:19:56.503Z,101271.25
2022-09-20T10:23:06.662Z,101269.59
2022-09-20T10:25:56.139Z,101267.66
2022-09-20T10:28:31.069Z,101276.84
2022-09-20T10:31:25.846Z,101261.91
2022-09-20T10:34:29.628Z,101280.69
2022-09-20T10:37:00.593Z,101283.78
2022-09-20T10:39:43.399Z,101272.47
2022-09-20T10:42:31.087Z,101277.47
2022-09-20T10:45:05.952Z,101270.59
2022-09-20T10:47:49.856Z,101271.56
2022-09-20T10:50:29.687Z,101277.06
2022-09-20T10:53:05.324Z,101271.16
2022-09-20T10:55:42.260Z,101285.34
2022-09-20T10:58:30.591Z,101286.16
2022-09-20T11:01:09.900Z,101309.31
2022-09-20T11:04:09.012Z,101301.38
2022-09-20T11:06:58.556Z,101299.75
2022-09-20T11:09:29.969Z,101300.00
2022-09-20T11:12:10.665Z,101294.34
2022-09-20T11:14:48.337Z,101296.34
2022-09-20T11:17:24.297Z,101297.56
2022-09-20T11:19:57.536Z,101294.03
2022-09-20T11:22:32.372Z,101293.19
2022-09-20T11:25:11.376Z,101296.91
2022-09-20T11:28:36.255Z,101297.22
2022-09-20T11:31:14.184Z,101288.03
2022-09-20T11:33:56.295Z,101299.25
2022-09-20T11:36:30.422Z,101292.41
2022-09-20T11:39:14.263Z,101308.34
2022-09-20T11:41:41.815Z,101305.34
2022-09-20T11:44:13.943Z,101309.88
2022-09-20T11:47:00.371Z,101309.47
2022-09-20T11:49:43.972Z,101296.97
2022-09-20T11:52:28.629Z,101295.28
2022-09-20T11:55:23.435Z,101285.75
2022-09-20T11:58:22.381Z,101280.88
2022-09-20T12:00:54.289Z,101272.59
2022-09-20T12:03:36.306Z,101276.38
2022-09-20T12:06:08.289Z,101273.03
2022-09-20T12:08:41.544Z,101277.78
2022-09-20T12:11:13.763Z,101271.09
2022-09-20T12:13:43.287Z,101275.56
2022-09-20T12:16:34.619Z,101277.28
2022-09-20T12:19:07.002Z,101279.44
2022-09-20T12:21:58.879Z,101278.47
2022-09-20T12:24:33.953Z,101276.41
2022-09-20T12:27:20.161Z,101262.03
2022-09-20T12:29:47.487Z,101274.28
2022-09-20T12:32:36.920Z,101275.69
2022-09-20T12:35:35.207Z,101269.13
2022-09-20T12:38:26.327Z,101272.91
2022-09-20T12:41:08.319Z,101276.13
2022-09-20T12:43:38.768Z,101271.16
2022-09-20T12:46:11.255Z,101269.56
2022-09-20T12:48:38.387Z,101272.44
2022-09-20T12:51:39.233Z,101266.75
2022-09-20T12:54:09.823Z,101269.19
2022-09-20T12:56:39.016Z,101257.09
2022-09-20T12:59:18.140Z,101269.19
2022-09-20T13:01:45.978Z,101258.59
2022-09-20T13:04:57.164Z,101262.06
2022-09-20T13:07:34.925Z,101267.81
2022-09-20T13:10:06.904Z,101256.28
2022-09-20T13:12:37.140Z,101258.59
2022-09-20T13:15:05.134Z,101264.91
2022-09-20T13:17:32.182Z,101262.69
2022-09-20T13:19:59.514Z,101259.75
2022-09-20T13:22:28.911Z,101268.25
2022-09-20T13:25:01.300Z,101265.97
2022-09-20T13:27:34.364Z,101265.44
2022-09-20T13:30:09.961Z,101275.25
2022-09-20T13:32:41.495Z,101261.81
2022-09-20T13:35:10.795Z,101252.41
2022-09-20T13:37:42.948Z,101242.78
2022-09-20T13:40:19.099Z,101249.84
2022-09-20T13:42:47.733Z,101260.63
2022-09-20T13:45:15.515Z,101254.81
2022-09-20T13:47:43.652Z,101259.63
2022-09-20T13:50:27.112Z,101262.66
2022-09-20T13:52:58.817Z,101261.31
2022-09-20T13:55:25.169Z,101258.91
2022-09-20T13:57:53.157Z,101247.47
2022-09-20T14:00:19.771Z,101252.66
2022-09-20T14:02:48.675Z,101248.19
2022-09-20T14:05:18.761Z,101242.69
2022-09-20T14:07:49.123Z,101245.25
2022-09-20T14:10:31.002Z,101253.59
2022-09-20T14:13:01.047Z,101246.56
2022-09-20T14:15:33.515Z,101257.78
2022-09-20T14:18:02.833Z,101255.97
2022-09-20T14:20:29.192Z,101245.63
2022-09-20T14:22:59.030Z,101251.81
2022-09-20T14:25:27.128Z,101240.59
2022-09-20T14:28:07.034Z,101246.25
2022-09-20T14:30:36.823Z,101244.97
2022-09-20T14:33:06.705Z,101248.13
2022-09-20T14:35:33.428Z,101247.47
2022-09-20T14:38:07.504Z,101246.94
2022-09-20T14:40:48.474Z,101244.31
2022-09-20T14:43:32.840Z,101250.91
2022-09-20T14:46:02.510Z,101242.09
2022-09-20T14:48:38.449Z,101247.09
2022-09-20T14:51:18.009Z,101248.63
2022-09-20T14:53:46.665Z,101228.28
2022-09-20T14:56:15.805Z,101234.69
2022-09-20T14:59:27.523Z,101233.28
2022-09-20T15:02:15.934Z,101232.66
2022-09-20T15:04:54.183Z,101226.47
2022-09-20T15:07:21.036Z,101235.41
2022-09-20T15:09:47.419Z,101240.56
2022-09-20T15:12:21.366Z,101237.28
2022-09-20T15:14:48.405Z,101241.28
2022-09-20T15:17:19.964Z,101239.72
2022-09-20T15:19:47.951Z,101232.59
2022-09-20T15:22:15.083Z,101225.19
2022-09-20T15:24:42.205Z,101236.09
2022-09-20T15:27:11.795Z,101240.72
2022-09-20T15:29:38.096Z,101238.06
2022-09-20T15:32:05.778Z,101239.19
2022-09-20T15:34:32.567Z,101237.19
2022-09-20T15:36:58.865Z,101243.31
2022-09-20T15:39:25.877Z,101239.88
2022-09-20T15:41:52.659Z,101242.16
2022-09-20T15:44:19.820Z,101235.09
2022-09-20T15:46:46.519Z,101244.50
2022-09-20T15:49:12.903Z,101244.00
2022-09-20T15:51:39.393Z,101236.16
2022-09-20T15:54:07.628Z,101228.78
2022-09-20T15:56:36.983Z,101236.16
2022-09-20T15:59:05.789Z,101232.41
2022-09-20T16:01:44.462Z,101241.47
2022-09-20T16:04:12.324Z,101238.75
2022-09-20T16:06:41.103Z,101246.72
2022-09-20T16:09:08.281Z,101239.44
2022-09-20T16:11:35.226Z,101245.50
2022-09-20T16:14:01.773Z,101237.91
2022-09-20T16:16:30.400Z,101246.44
2022-09-20T16:19:15.665Z,101252.00
2022-09-20T16:21:43.956Z,101258.00
2022-09-20T16:24:13.948Z,101262.34
2022-09-20T16:26:40.363Z,101260.78
2022-09-20T16:29:11.587Z,101262.63
2022-09-20T16:31:42.452Z,101257.28
2022-09-20T16:34:16.839Z,101258.25
2022-09-20T16:36:44.168Z,101266.13
2022-09-20T16:39:11.847Z,101267.38
2022-09-20T16:41:39.407Z,101274.22
2022-09-20T16:44:05.832Z,101265.13
2022-09-20T16:46:32.768Z,101269.41
2022-09-20T16:49:00.770Z,101273.22
2022-09-20T16:51:33.160Z,101273.94
2022-09-20T16:54:12.510Z,101275.38
2022-09-20T16:56:47.091Z,101281.88
2022-09-20T16:59:15.825Z,101270.53
2022-09-20T17:01:42.983Z,101273.53
2022-09-20T17:04:09.815Z,101263.56
2022-09-20T17:06:38.003Z,101275.53
2022-09-20T17:09:06.059Z,101280.03
2022-09-20T17:11:35.775Z,101282.44
2022-09-20T17:14:02.281Z,101292.38
2022-09-20T17:16:31.653Z,101295.38
2022-09-20T17:19:07.296Z,101296.22
2022-09-20T17:21:35.947Z,101300.38
2022-09-20T17:24:04.049Z,101301.75
2022-09-20T17:26:33.107Z,101312.00
2022-09-20T17:29:01.672Z,101304.31
2022-09-20T17:31:34.230Z,101312.41
2022-09-20T17:34:02.169Z,101314.53
2022-09-20T17:36:30.443Z,101316.94
2022-09-20T17:39:03.648Z,101320.47
2022-09-20T17:41:30.774Z,101322.72
2022-09-20T17:43:59.049Z,101317.75
2022-09-20T17:46:29.761Z,101330.06
2022-09-20T17:49:00.512Z,101319.81
2022-09-20T17:51:29.344Z,101326.50
2022-09-20T17:53:55.924Z,101333.97
2022-09-20T17:56:28.526Z,101325.34
2022-09-20T17:58:56.667Z,101330.94
2022-09-20T18:01:23.856Z,101330.09
2022-09-20T18:03:50.326Z,101332.88
2022-09-20T18:06:24.239Z,101339.34
2022-09-20T18:08:53.236Z,101340.34
2022-09-20T18:11:21.966Z,101348.88
2022-09-20T18:13:48.411Z,101337.06
2022-09-20T18:16:17.750Z,101338.03
2022-09-20T18:18:46.277Z,101344.22
2022-09-20T18:21:16.722Z,101352.25
2022-09-20T18:23:44.432Z,101348.75
2022-09-20T18:26:22.189Z,101355.19
2022-09-20T18:29:05.546Z,101365.31
2022-09-20T18:31:44.934Z,101368.16
2022-09-20T18:34:26.673Z,101370.41
2022-09-20T18:36:54.988Z,101371.56
2022-09-20T18:39:28.729Z,101367.16
2022-09-20T18:41:55.638Z,101358.72
2022-09-20T18:44:23.121Z,101363.03
2022-09-20T18:46:52.202Z,101366.44
2022-09-20T18:49:20.489Z,101367.03
2022-09-20T18:51:48.232Z,101375.78
2022-09-20T18:54:15.220Z,101367.03
2022-09-20T18:56:44.187Z,101382.88
2022-09-20T18:59:20.870Z,101380.50
2022-09-20T19:01:50.446Z,101385.94
2022-09-20T19:04:45.663Z,101376.09
2022-09-20T19:07:27.212Z,101388.91
2022-09-20T19:10:05.711Z,101384.78
2022-09-20T19:12:42.877Z,101395.94
2022-09-20T19:15:22.615Z,101398.16
2022-09-20T19:18:25.140Z,101409.75
2022-09-20T19:21:00.243Z,101413.19
2022-09-20T19:23:45.102Z,101414.31
2022-09-20T19:26:28.763Z,101412.69
2022-09-20T19:29:00.065Z,101427.00
2022-09-20T19:31:32.493Z,101417.84
2022-09-20T19:34:02.890Z,101431.00
2022-09-20T19:36:50.039Z,101436.66
2022-09-20T19:39:40.000Z,101432.28
2022-09-20T19:42:09.287Z,101439.75
2022-09-20T19:44:51.547Z,101439.28
2022-09-20T19:47:25.388Z,101446.97
2022-09-20T19:50:18.280Z,101441.44
2022-09-20T19:52:44.965Z,101443.88
2022-09-20T19:55:13.161Z,101447.78
2022-09-20T19:57:46.738Z,101441.72
2022-09-20T20:00:15.252Z,101441.72
2022-09-20T20:02:45.673Z,101451.13
2022-09-20T20:05:14.011Z,101457.00
2022-09-20T20:07:59.888Z,101454.94
2022-09-20T20:10:30.272Z,101456.78
2022-09-20T20:13:34.491Z,101458.22
2022-09-20T20:16:12.197Z,101458.00
2022-09-20T20:18:58.492Z,101458.97
2022-09-20T20:21:36.259Z,101462.78
2022-09-20T20:24:20.830Z,101461.31
2022-09-20T20:26:47.215Z,101470.47
2022-09-20T20:29:13.760Z,101465.34
2022-09-20T20:31:40.534Z,101461.06
2022-09-20T20:34:08.656Z,101452.16
2022-09-20T20:36:35.243Z,101458.97
2022-09-20T20:39:02.460Z,101462.41
2022-09-20T20:41:31.559Z,101464.88
2022-09-20T20:43:57.871Z,101457.28
2022-09-20T20:46:25.129Z,101468.16
2022-09-20T20:48:51.556Z,101464.63
2022-09-20T20:51:20.154Z,101466.94
2022-09-20T20:53:49.251Z,101467.91
2022-09-20T20:56:18.304Z,101466.34
2022-09-20T20:58:46.938Z,101462.81
2022-09-20T21:01:14.728Z,101460.81
2022-09-20T21:03:43.471Z,101470.47
2022-09-20T21:06:10.385Z,101478.16
2022-09-20T21:08:38.795Z,101483.88
2022-09-20T21:11:11.421Z,101485.13
2022-09-20T21:13:39.362Z,101480.81
2022-09-20T21:16:08.916Z,101474.59
2022-09-20T21:18:35.738Z,101471.81
2022-09-20T21:21:03.643Z,101479.75
2022-09-20T21:23:34.172Z,101480.81
2022-09-20T21:26:07.653Z,101479.97
2022-09-20T21:28:36.669Z,101486.19
2022-09-20T21:31:07.438Z,101490.69
2022-09-20T21:33:35.748Z,101487.50
2022-09-20T21:36:02.999Z,101489.78
2022-09-20T21:38:30.195Z,101496.72
2022-09-20T21:41:24.303Z,101488.41
2022-09-20T21:43:55.716Z,101493.28
2022-09-20T21:46:29.652Z,101483.84
2022-09-20T21:48:57.676Z,101495.94
2022-09-20T21:51:25.979Z,101489.59
2022-09-20T21:53:54.226Z,101492.50
2022-09-20T21:56:20.520Z,101495.53
2022-09-20T21:58:46.901Z,101497.25
2022-09-20T22:01:16.288Z,101495.25
2022-09-20T22:03:48.319Z,101492.53
2022-09-20T22:06:25.992Z,101496.50
2022-09-20T22:08:58.288Z,101491.59
2022-09-20T22:11:27.252Z,101500.69
2022-09-20T22:13:55.107Z,101498.84
2022-09-20T22:16:36.697Z,101506.31
2022-09-20T22:19:04.363Z,101498.28
2022-09-20T22:21:36.810Z,101501.94
2022-09-20T22:24:05.930Z,101498.03
2022-09-20T22:26:47.186Z,101493.75
2022-09-20T22:29:14.587Z,101488.50
2022-09-20T22:31:46.564Z,101496.00
2022-09-20T22:34:20.897Z,101506.78
2022-09-20T22:36:47.918Z,101508.56
2022-09-20T22:39:14.883Z,101499.78
2022-09-20T22:41:42.500Z,101490.88
2022-09-20T22:44:09.810Z,101506.97
2022-09-20T22:46:36.487Z,101508.47
2022-09-20T22:49:05.694Z,101507.06
2022-09-20T22:51:33.283Z,101510.19
2022-09-20T22:54:00.809Z,101504.06
2022-09-20T22:56:31.051Z,101515.34
2022-09-20T22:59:00.114Z,101510.41
2022-09-20T23:01:29.427Z,101512.13
2022-09-20T23:04:00.071Z,101515.53
2022-09-20T23:06:29.629Z,101518.56
2022-09-20T23:08:58.755Z,101513.41
2022-09-20T23:11:25.280Z,101516.41
2022-09-20T23:13:54.957Z,101517.78
2022-09-20T23:16:24.130Z,101512.84
2022-09-20T23:18:52.355Z,101514.78
2022-09-20T23:21:19.589Z,101511.13
2022-09-20T23:23:47.676Z,101516.84
2022-09-20T23:26:16.989Z,101505.25
2022-09-20T23:28:46.908Z,101501.41
2022-09-20T23:31:17.862Z,101502.25
2022-09-20T23:33:49.170Z,101507.78
2022-09-20T23:36:17.164Z,101510.91
2022-09-20T23:38:44.031Z,101509.78
2022-09-20T23:41:13.538Z,101506.69
2022-09-20T23:43:41.008Z,101513.16
2022-09-20T23:46:08.632Z,101509.06
2022-09-20T23:48:36.209Z,101510.00
2022-09-20T23:51:04.479Z,101512.47
2022-09-20T23:53:31.687Z,101512.06
2022-09-20T23:55:58.040Z,101502.44
2022-09-20T23:58:24.608Z,101513.16
